Block Number:

FAA Identifier: KMEV

AWOS Phone: 775-782-6264

AWOS Radio Freq: 119.325

Current Conditions

Updated: 6:05 AM GMT on 22 Feb 2017

  • Wind Speed (2min):
    5 Knots
  • Wind Direction (2min):
    070 Degrees
  • Temperature (10min):
    1 Celsius
  • Dew Point (10min):
    0 Celsius
  • Humidity:
    96 Percent
  • Altimeter:
    30.11 inHG
  • Density Altitude:
  • Visibility:
    10 Miles
  • Clouds:
    SCT013 BKN020 OVC043
METAR: METAR KMEV 220600Z AUTO 06005KT 10SM UP FEW011 SCT017 BKN031 01/00 A3011 RMK AO2